KCGI/CGI METAR and TAF weather

Enter ICAO airport designator
Station Type Date Time Source
KCGI METAR 2021/09/24 04:53 UTC NOAA

KCGI 240453Z AUTO 00000KT 9SM CLR 10/08 A3007 RMK AO2 SLP181 T01000083


Station Type Date Time Source
KCGI Decoded METAR 2021/09/24 04:53 UTC NOAA

CAPE GIRARDEAU REGIONAL, MO, United States (KCGI) 37-14N 089-35W 102M
Sep 24, 2021 - 12:53 AM EDT / 2021.09.24 0453 UTC
Wind: Calm:0
Visibility: 9 mile(s):0
Sky conditions: clear
Temperature: 50.0 F (10.0 C)
Dew Point: 46.9 F (8.3 C)
Relative Humidity: 89%
Pressure (altimeter): 30.07 in. Hg (1018 hPa)
ob: KCGI 240453Z AUTO 00000KT 9SM CLR 10/08 A3007 RMK AO2 SLP181 T01000083
cycle: 5

Station Type Date Time Source
KCGI TAF 2021/09/24 06:22 UTC NOAA

TAF KCGI 240520Z 2406/2506 00000KT P6SM SKC
FM240900 00000KT 5SM BR SKC
TEMPO 2410/2412 2SM BR
FM241300 21008KT P6SM FEW250
FM250000 19006KT P6SM BKN250

Example: see airport list